createdAt,value
2022-09-06T00:00:48.525Z,12.81
2022-09-06T00:03:21.034Z,12.78
2022-09-06T00:05:54.403Z,12.72
2022-09-06T00:08:26.831Z,12.63
2022-09-06T00:11:01.344Z,12.61
2022-09-06T00:13:34.512Z,12.48
2022-09-06T00:16:09.504Z,12.49
2022-09-06T00:18:42.910Z,12.39
2022-09-06T00:21:18.764Z,12.47
2022-09-06T00:23:51.474Z,12.49
2022-09-06T00:26:24.249Z,12.48
2022-09-06T00:28:56.600Z,12.52
2022-09-06T00:31:29.043Z,12.50
2022-09-06T00:34:02.002Z,12.49
2022-09-06T00:36:35.087Z,12.47
2022-09-06T00:39:07.456Z,12.46
2022-09-06T00:41:39.822Z,12.38
2022-09-06T00:44:12.334Z,12.39
2022-09-06T00:46:48.432Z,12.40
2022-09-06T00:49:25.745Z,12.30
2022-09-06T00:52:03.026Z,12.34
2022-09-06T00:54:35.971Z,12.34
2022-09-06T00:57:08.464Z,12.22
2022-09-06T00:59:42.442Z,12.22
2022-09-06T01:02:15.095Z,12.24
2022-09-06T01:04:49.192Z,12.22
2022-09-06T01:07:33.731Z,12.19
2022-09-06T01:10:35.212Z,12.22
2022-09-06T01:13:20.312Z,12.19
2022-09-06T01:15:58.637Z,12.00
2022-09-06T01:18:45.322Z,12.09
2022-09-06T01:21:37.653Z,12.08
2022-09-06T01:24:40.887Z,12.14
2022-09-06T01:27:52.283Z,12.02
2022-09-06T01:30:25.535Z,12.00
2022-09-06T01:33:04.659Z,11.99
2022-09-06T01:35:42.272Z,11.94
2022-09-06T01:38:15.373Z,11.88
2022-09-06T01:40:47.755Z,11.85
2022-09-06T01:43:25.581Z,11.88
2022-09-06T01:46:07.015Z,11.72
2022-09-06T01:48:55.816Z,11.80
2022-09-06T01:51:31.917Z,11.78
2022-09-06T01:54:21.863Z,11.76
2022-09-06T01:57:06.114Z,11.79
2022-09-06T01:59:51.708Z,11.80
2022-09-06T02:02:33.668Z,11.84
2022-09-06T02:05:13.261Z,11.79
2022-09-06T02:07:49.000Z,11.76
2022-09-06T02:10:25.707Z,11.80
2022-09-06T02:13:00.982Z,11.81
2022-09-06T02:15:37.071Z,11.69
2022-09-06T02:18:14.598Z,11.72
2022-09-06T02:20:51.025Z,11.69
2022-09-06T02:23:28.439Z,11.69
2022-09-06T02:26:05.287Z,11.69
2022-09-06T02:28:37.724Z,11.65
2022-09-06T02:31:15.982Z,11.65
2022-09-06T02:33:50.821Z,11.63
2022-09-06T02:36:23.919Z,11.62
2022-09-06T02:38:58.202Z,11.63
2022-09-06T02:41:31.618Z,11.49
2022-09-06T02:44:04.039Z,11.46
2022-09-06T02:46:36.363Z,11.45
2022-09-06T02:49:09.421Z,11.49
2022-09-06T02:51:41.809Z,11.49
2022-09-06T02:54:14.277Z,11.51
2022-09-06T02:56:51.556Z,11.50
2022-09-06T02:59:24.618Z,11.44
2022-09-06T03:01:57.011Z,11.43
2022-09-06T03:04:30.034Z,11.44
2022-09-06T03:07:02.405Z,11.39
2022-09-06T03:09:34.903Z,11.43
2022-09-06T03:12:07.431Z,11.44
2022-09-06T03:14:40.611Z,11.35
2022-09-06T03:17:12.995Z,11.33
2022-09-06T03:19:46.116Z,11.29
2022-09-06T03:22:19.452Z,11.40
2022-09-06T03:24:51.946Z,11.38
2022-09-06T03:27:24.376Z,11.37
2022-09-06T03:29:56.750Z,11.35
2022-09-06T03:32:29.112Z,11.37
2022-09-06T03:35:02.278Z,11.27
2022-09-06T03:37:35.031Z,11.25
2022-09-06T03:40:09.127Z,11.25
2022-09-06T03:42:41.483Z,11.25
2022-09-06T03:45:14.126Z,11.32
2022-09-06T03:47:46.554Z,11.21
2022-09-06T03:50:19.554Z,11.18
2022-09-06T03:52:51.875Z,11.07
2022-09-06T03:55:24.284Z,11.07
2022-09-06T03:57:56.633Z,11.06
2022-09-06T04:00:29.026Z,10.94
2022-09-06T04:03:01.989Z,10.93
2022-09-06T04:05:35.378Z,10.93
2022-09-06T04:08:07.719Z,10.91
2022-09-06T04:10:40.362Z,10.91
2022-09-06T04:13:12.688Z,10.97
2022-09-06T04:15:46.532Z,10.91
2022-09-06T04:18:19.966Z,10.90
2022-09-06T04:20:55.239Z,10.86
2022-09-06T04:23:28.624Z,10.91
2022-09-06T04:26:01.226Z,10.88
2022-09-06T04:28:33.565Z,10.97
2022-09-06T04:31:05.940Z,10.90
2022-09-06T04:33:38.678Z,10.94
2022-09-06T04:36:11.948Z,10.90
2022-09-06T04:38:45.062Z,10.80
2022-09-06T04:41:18.587Z,10.70
2022-09-06T04:43:50.962Z,10.79
2022-09-06T04:46:25.222Z,10.86
2022-09-06T04:48:58.170Z,10.95
2022-09-06T04:51:31.235Z,10.87
2022-09-06T04:54:03.651Z,10.87
2022-09-06T04:56:36.029Z,10.92
2022-09-06T04:59:08.389Z,11.04
2022-09-06T05:01:40.764Z,11.09
2022-09-06T05:04:13.107Z,11.13
2022-09-06T05:06:46.127Z,11.06
2022-09-06T05:09:18.483Z,11.14
2022-09-06T05:11:50.851Z,11.23
2022-09-06T05:14:23.423Z,11.25
2022-09-06T05:16:55.919Z,11.38
2022-09-06T05:19:28.453Z,11.49
2022-09-06T05:22:01.478Z,11.59
2022-09-06T05:24:34.353Z,11.67
2022-09-06T05:27:06.954Z,11.65
2022-09-06T05:29:39.473Z,11.78
2022-09-06T05:32:11.844Z,11.92
2022-09-06T05:34:44.187Z,12.05
2022-09-06T05:37:17.245Z,12.13
2022-09-06T05:39:49.647Z,12.27
2022-09-06T05:42:22.061Z,12.43
2022-09-06T05:44:54.383Z,12.61
2022-09-06T05:47:26.768Z,12.70
2022-09-06T05:49:59.298Z,12.95
2022-09-06T05:52:34.343Z,13.11
2022-09-06T05:55:07.352Z,13.30
2022-09-06T05:57:39.727Z,13.47
2022-09-06T06:00:13.453Z,13.65
2022-09-06T06:02:47.680Z,13.84
2022-09-06T06:05:20.062Z,14.00
2022-09-06T06:07:54.666Z,14.06
2022-09-06T06:10:26.975Z,14.19
2022-09-06T06:12:59.334Z,14.28
2022-09-06T06:15:32.091Z,14.48
2022-09-06T06:18:04.557Z,14.67
2022-09-06T06:20:36.907Z,14.79
2022-09-06T06:23:09.874Z,14.97
2022-09-06T06:25:42.186Z,15.14
2022-09-06T06:28:14.643Z,15.26
2022-09-06T06:30:46.987Z,15.39
2022-09-06T06:33:19.363Z,15.51
2022-09-06T06:36:02.808Z,15.62
2022-09-06T06:38:37.484Z,15.84
2022-09-06T06:41:11.565Z,16.09
2022-09-06T06:43:44.370Z,16.21
2022-09-06T06:46:18.206Z,16.30
2022-09-06T06:48:54.642Z,16.45
2022-09-06T06:51:29.935Z,16.53
2022-09-06T06:54:03.603Z,16.66
2022-09-06T06:56:37.673Z,16.80
2022-09-06T06:59:10.071Z,17.02
2022-09-06T07:01:42.547Z,17.00
2022-09-06T07:04:15.533Z,17.16
2022-09-06T07:12:35.656Z,17.58
2022-09-06T07:15:09.011Z,17.67
2022-09-06T07:17:41.339Z,17.92
2022-09-06T07:20:14.669Z,18.19
2022-09-06T07:25:50.576Z,18.42
2022-09-06T07:28:23.308Z,18.51
2022-09-06T07:30:55.758Z,18.71
2022-09-06T07:33:28.470Z,18.82
2022-09-06T07:36:02.688Z,18.93
2022-09-06T07:38:35.825Z,19.07
2022-09-06T07:41:10.462Z,19.30
2022-09-06T07:43:50.972Z,19.40
2022-09-06T07:46:23.397Z,19.57
2022-09-06T07:48:55.764Z,19.68
2022-09-06T07:51:28.800Z,19.84
2022-09-06T07:54:26.365Z,19.97
2022-09-06T07:56:54.453Z,20.02
2022-09-06T07:59:26.830Z,20.02
2022-09-06T08:01:59.187Z,20.12
2022-09-06T08:04:31.709Z,20.34
2022-09-06T08:09:56.391Z,20.76
2022-09-06T08:12:29.560Z,20.99
2022-09-06T08:15:04.751Z,21.03
2022-09-06T08:17:37.106Z,21.24
2022-09-06T08:20:10.274Z,21.37
2022-09-06T08:22:42.706Z,21.49
2022-09-06T08:25:15.101Z,21.68
2022-09-06T08:27:48.122Z,21.73
2022-09-06T08:30:20.566Z,21.86
2022-09-06T08:32:53.004Z,21.82
2022-09-06T08:35:25.333Z,21.78
2022-09-06T08:37:57.714Z,21.54
2022-09-06T08:40:30.045Z,21.83
2022-09-06T08:43:03.114Z,22.17
2022-09-06T08:45:35.568Z,22.17
2022-09-06T08:48:08.111Z,22.27
2022-09-06T08:50:50.712Z,22.35
2022-09-06T08:53:23.250Z,22.38
2022-09-06T08:56:02.959Z,22.36
2022-09-06T08:58:56.368Z,22.61
2022-09-06T09:01:37.668Z,22.84
2022-09-06T09:04:17.951Z,22.96
2022-09-06T09:06:54.699Z,23.14
2022-09-06T09:09:31.148Z,23.35
2022-09-06T09:12:03.608Z,23.55
2022-09-06T09:14:39.667Z,23.53
2022-09-06T09:17:19.614Z,23.64
2022-09-06T09:19:51.984Z,23.73
2022-09-06T09:22:25.356Z,23.39
2022-09-06T09:24:59.759Z,23.43
2022-09-06T09:27:33.259Z,23.62
2022-09-06T09:33:00.666Z,24.01
2022-09-06T09:35:36.934Z,24.26
2022-09-06T09:38:12.377Z,24.39
2022-09-06T09:40:51.035Z,24.60
2022-09-06T09:43:25.730Z,24.49
2022-09-06T09:46:14.072Z,24.54
2022-09-06T09:49:00.819Z,24.66
2022-09-06T09:51:34.545Z,24.53
2022-09-06T09:54:09.128Z,24.51
2022-09-06T09:56:46.371Z,24.66
2022-09-06T09:59:22.418Z,24.59
2022-09-06T10:01:57.429Z,24.63
2022-09-06T10:04:47.964Z,24.57
2022-09-06T10:07:23.338Z,24.68
2022-09-06T10:10:00.667Z,25.12
2022-09-06T10:12:34.580Z,25.29
2022-09-06T10:15:10.049Z,25.10
2022-09-06T10:17:50.902Z,25.19
2022-09-06T10:20:31.882Z,25.50
2022-09-06T10:23:10.150Z,25.42
2022-09-06T10:25:48.916Z,25.72
2022-09-06T10:28:30.815Z,26.14
2022-09-06T10:31:20.869Z,26.24
2022-09-06T10:34:05.271Z,25.81
2022-09-06T10:36:39.979Z,26.12
2022-09-06T10:39:39.696Z,26.41
2022-09-06T10:42:22.173Z,26.50
2022-09-06T10:45:15.048Z,26.51
2022-09-06T10:48:00.843Z,26.73
2022-09-06T10:50:54.034Z,27.06
2022-09-06T10:53:34.475Z,27.43
2022-09-06T10:56:10.647Z,27.43
2022-09-06T11:01:51.418Z,27.18
2022-09-06T11:04:30.871Z,27.39
2022-09-06T11:07:11.119Z,27.52
2022-09-06T11:09:48.003Z,26.88
2022-09-06T11:12:30.179Z,26.60
2022-09-06T11:15:04.417Z,25.94
2022-09-06T11:17:43.357Z,26.13
2022-09-06T11:20:23.223Z,26.45
2022-09-06T11:23:27.739Z,26.63
2022-09-06T11:26:24.108Z,26.21
2022-09-06T11:28:58.583Z,26.40
2022-09-06T11:34:28.250Z,26.55
2022-09-06T11:37:02.223Z,26.87
2022-09-06T11:42:41.129Z,26.64
2022-09-06T11:45:20.661Z,26.87
2022-09-06T11:47:53.538Z,27.21
2022-09-06T11:50:59.579Z,26.95
2022-09-06T11:53:54.115Z,27.24
2022-09-06T11:56:31.349Z,27.54
2022-09-06T11:59:10.927Z,27.78
2022-09-06T12:01:59.828Z,27.95
2022-09-06T12:05:09.526Z,27.57
2022-09-06T12:08:15.051Z,27.86
2022-09-06T12:10:56.905Z,28.19
2022-09-06T12:13:39.887Z,28.35
2022-09-06T12:16:13.766Z,28.46
2022-09-06T12:19:02.223Z,27.93
2022-09-06T12:21:46.690Z,28.15
2022-09-06T12:24:54.502Z,28.20
2022-09-06T12:27:29.865Z,28.31
2022-09-06T12:30:06.283Z,27.78
2022-09-06T12:32:43.236Z,27.58
2022-09-06T12:38:15.106Z,27.70
2022-09-06T12:40:50.913Z,27.27
2022-09-06T12:43:23.603Z,27.23
2022-09-06T12:45:56.708Z,27.34
2022-09-06T12:48:31.332Z,27.48
2022-09-06T12:51:05.281Z,27.27
2022-09-06T12:53:37.638Z,27.24
2022-09-06T12:56:11.844Z,27.16
2022-09-06T12:58:44.163Z,27.17
2022-09-06T13:01:23.106Z,26.85
2022-09-06T13:04:02.593Z,26.70
2022-09-06T13:06:40.835Z,26.31
2022-09-06T13:09:15.658Z,26.17
2022-09-06T13:11:50.731Z,26.09
2022-09-06T13:14:25.640Z,25.81
2022-09-06T13:16:59.246Z,25.56
2022-09-06T13:19:34.739Z,25.64
2022-09-06T13:22:10.275Z,25.47
2022-09-06T13:24:47.102Z,25.40
2022-09-06T13:27:32.762Z,25.28
2022-09-06T13:30:08.078Z,25.15
2022-09-06T13:32:47.230Z,25.00
2022-09-06T13:35:23.168Z,24.56
2022-09-06T13:38:20.357Z,24.47
2022-09-06T13:43:47.854Z,23.93
2022-09-06T13:46:20.315Z,23.83
2022-09-06T13:48:54.347Z,23.79
2022-09-06T13:51:27.086Z,23.69
2022-09-06T13:54:07.009Z,23.68
2022-09-06T13:56:40.891Z,23.59
2022-09-06T13:59:13.827Z,23.40
2022-09-06T14:01:49.574Z,23.20
2022-09-06T14:04:23.488Z,23.36
2022-09-06T14:06:56.354Z,23.37
2022-09-06T14:09:29.034Z,23.07
2022-09-06T14:12:33.631Z,22.93
2022-09-06T14:15:06.953Z,23.04
2022-09-06T14:17:39.417Z,23.04
2022-09-06T14:20:12.659Z,23.07
2022-09-06T14:22:45.052Z,23.14
2022-09-06T14:25:17.513Z,23.12
2022-09-06T14:27:49.899Z,23.15
2022-09-06T14:30:22.514Z,23.09
2022-09-06T14:32:54.886Z,23.12
2022-09-06T14:35:28.390Z,23.10
2022-09-06T14:38:00.792Z,23.08
2022-09-06T14:40:35.240Z,23.14
2022-09-06T14:43:08.011Z,22.93
2022-09-06T14:45:40.482Z,22.90
2022-09-06T14:48:12.911Z,22.91
2022-09-06T14:50:46.368Z,22.89
2022-09-06T14:53:38.819Z,22.90
2022-09-06T14:56:12.724Z,22.87
2022-09-06T14:58:45.919Z,22.84
2022-09-06T15:01:20.946Z,22.84
2022-09-06T15:03:55.126Z,22.83
2022-09-06T15:06:29.604Z,22.76
2022-09-06T15:09:02.083Z,22.79
2022-09-06T15:11:36.262Z,22.80
2022-09-06T15:14:13.267Z,22.82
2022-09-06T15:16:49.871Z,22.79
2022-09-06T15:19:27.728Z,22.79
2022-09-06T15:22:00.874Z,22.58
2022-09-06T15:24:34.115Z,22.44
2022-09-06T15:27:06.616Z,22.44
2022-09-06T15:29:39.052Z,22.43
2022-09-06T15:32:11.835Z,22.32
2022-09-06T15:34:44.231Z,22.32
2022-09-06T15:37:17.554Z,22.31
2022-09-06T15:39:50.088Z,22.28
2022-09-06T15:42:22.581Z,22.03
2022-09-06T15:44:56.043Z,22.03
2022-09-06T15:47:29.443Z,22.10
2022-09-06T15:50:01.960Z,22.03
2022-09-06T15:52:35.405Z,21.85
2022-09-06T15:55:26.574Z,21.77
2022-09-06T15:57:59.067Z,21.66
2022-09-06T16:00:31.615Z,21.48
2022-09-06T16:03:04.125Z,21.41
2022-09-06T16:08:30.386Z,21.50
2022-09-06T16:11:07.201Z,21.51
2022-09-06T16:13:40.866Z,21.56
2022-09-06T16:16:15.737Z,21.39
2022-09-06T16:18:48.583Z,21.37
2022-09-06T16:21:23.604Z,21.37
2022-09-06T16:24:06.426Z,21.41
2022-09-06T16:26:40.431Z,21.38
2022-09-06T16:29:15.598Z,21.27
2022-09-06T16:31:48.112Z,21.07
2022-09-06T16:34:20.588Z,21.06
2022-09-06T16:36:54.523Z,20.97
2022-09-06T16:39:27.837Z,21.02
2022-09-06T16:42:00.656Z,21.01
2022-09-06T16:44:33.143Z,20.93
2022-09-06T16:47:05.713Z,20.94
2022-09-06T16:49:38.155Z,20.90
2022-09-06T16:52:10.548Z,20.89
2022-09-06T16:54:43.659Z,20.85
2022-09-06T16:57:16.051Z,20.78
2022-09-06T16:59:48.630Z,20.77
2022-09-06T17:02:22.116Z,20.76
2022-09-06T17:04:55.044Z,20.64
2022-09-06T17:07:27.433Z,20.46
2022-09-06T17:10:00.541Z,20.37
2022-09-06T17:12:33.287Z,20.24
2022-09-06T17:15:06.691Z,20.12
2022-09-06T17:17:38.804Z,19.91
2022-09-06T17:20:11.564Z,19.77
2022-09-06T17:22:43.991Z,19.63
2022-09-06T17:25:17.383Z,19.56
2022-09-06T17:27:50.567Z,19.60
2022-09-06T17:30:23.070Z,19.55
2022-09-06T17:32:56.188Z,19.43
2022-09-06T17:35:28.731Z,19.32
2022-09-06T17:38:01.205Z,19.27
2022-09-06T17:40:34.603Z,19.19
2022-09-06T17:43:07.126Z,19.18
2022-09-06T17:45:42.323Z,19.11
2022-09-06T17:48:14.791Z,19.09
2022-09-06T17:50:47.387Z,19.13
2022-09-06T17:53:19.814Z,19.02
2022-09-06T17:55:53.151Z,18.99
2022-09-06T17:58:25.562Z,18.98
2022-09-06T18:01:02.025Z,18.94
2022-09-06T18:03:34.599Z,18.74
2022-09-06T18:06:09.646Z,18.84
2022-09-06T18:08:44.203Z,18.74
2022-09-06T18:11:19.361Z,18.61
2022-09-06T18:13:56.737Z,18.45
2022-09-06T18:16:30.315Z,18.33
2022-09-06T18:19:05.084Z,18.37
2022-09-06T18:21:40.300Z,18.34
2022-09-06T18:24:13.351Z,18.16
2022-09-06T18:26:46.815Z,17.93
2022-09-06T18:29:20.090Z,17.81
2022-09-06T18:31:53.544Z,17.76
2022-09-06T18:34:26.199Z,17.80
2022-09-06T18:36:58.696Z,17.87
2022-09-06T18:39:31.207Z,17.90
2022-09-06T18:42:10.444Z,17.84
2022-09-06T18:44:45.591Z,18.05
2022-09-06T18:47:18.162Z,18.09
2022-09-06T18:49:50.598Z,18.14
2022-09-06T18:52:23.059Z,18.21
2022-09-06T18:54:55.515Z,18.24
2022-09-06T18:57:29.962Z,18.27
2022-09-06T19:00:03.235Z,18.29
2022-09-06T19:02:37.375Z,18.25
2022-09-06T19:05:09.849Z,18.27
2022-09-06T19:07:42.287Z,18.20
2022-09-06T19:10:14.763Z,18.14
2022-09-06T19:12:53.001Z,18.13
2022-09-06T19:15:25.780Z,18.11
2022-09-06T19:17:58.252Z,17.94
2022-09-06T19:20:30.680Z,17.90
2022-09-06T19:23:04.513Z,17.85
2022-09-06T19:25:36.910Z,17.76
2022-09-06T19:28:10.030Z,17.69
2022-09-06T19:30:42.459Z,17.64
2022-09-06T19:33:15.346Z,17.60
2022-09-06T19:36:10.309Z,17.61
2022-09-06T19:39:02.562Z,17.52
2022-09-06T19:41:41.047Z,17.36
2022-09-06T19:44:15.413Z,17.31
2022-09-06T19:46:50.499Z,17.25
2022-09-06T19:49:23.261Z,17.16
2022-09-06T19:51:55.675Z,17.13
2022-09-06T19:54:28.156Z,17.04
2022-09-06T19:57:00.599Z,16.96
2022-09-06T19:59:35.422Z,16.89
2022-09-06T20:02:08.848Z,16.85
2022-09-06T20:04:41.357Z,16.82
2022-09-06T20:07:14.052Z,16.77
2022-09-06T20:09:50.612Z,16.75
2022-09-06T20:12:24.831Z,16.67
2022-09-06T20:14:58.700Z,16.61
2022-09-06T20:17:34.005Z,16.54
2022-09-06T20:20:08.855Z,16.44
2022-09-06T20:22:45.172Z,16.37
2022-09-06T20:25:18.039Z,16.33
2022-09-06T20:27:50.583Z,16.22
2022-09-06T20:30:23.710Z,16.03
2022-09-06T20:32:56.118Z,16.01
2022-09-06T20:35:28.691Z,15.92
2022-09-06T20:38:01.137Z,15.82
2022-09-06T20:40:33.575Z,15.74
2022-09-06T20:43:05.997Z,15.75
2022-09-06T20:45:39.389Z,15.70
2022-09-06T20:48:11.838Z,15.70
2022-09-06T20:50:44.326Z,15.70
2022-09-06T20:53:16.728Z,15.61
2022-09-06T20:55:56.098Z,15.63
2022-09-06T20:58:29.177Z,15.64
2022-09-06T21:01:06.257Z,15.58
2022-09-06T21:03:40.434Z,15.59
2022-09-06T21:06:12.888Z,15.50
2022-09-06T21:08:45.483Z,15.48
2022-09-06T21:11:18.111Z,15.47
2022-09-06T21:13:52.635Z,15.36
2022-09-06T21:16:27.551Z,15.33
2022-09-06T21:19:01.904Z,15.20
2022-09-06T21:21:34.968Z,15.10
2022-09-06T21:24:08.542Z,15.09
2022-09-06T21:26:42.584Z,15.15
2022-09-06T21:29:14.971Z,15.04
2022-09-06T21:31:48.222Z,14.99
2022-09-06T21:34:20.821Z,15.01
2022-09-06T21:36:53.269Z,15.04
2022-09-06T21:39:25.866Z,14.94
2022-09-06T21:41:58.314Z,14.91
2022-09-06T21:44:30.723Z,14.87
2022-09-06T21:47:04.494Z,14.92
2022-09-06T21:49:37.801Z,14.82
2022-09-06T21:52:10.235Z,14.84
2022-09-06T21:54:42.663Z,14.71
2022-09-06T21:57:15.106Z,14.72
2022-09-06T21:59:47.542Z,14.70
2022-09-06T22:02:21.310Z,14.69
2022-09-06T22:04:53.827Z,14.60
2022-09-06T22:07:26.262Z,14.52
2022-09-06T22:09:58.678Z,14.37
2022-09-06T22:12:31.139Z,14.39
2022-09-06T22:15:03.999Z,14.33
2022-09-06T22:17:37.539Z,14.39
2022-09-06T22:20:11.358Z,14.25
2022-09-06T22:22:45.356Z,14.20
2022-09-06T22:25:17.761Z,14.26
2022-09-06T22:27:50.241Z,14.18
2022-09-06T22:30:25.594Z,14.13
2022-09-06T22:32:59.063Z,14.15
2022-09-06T22:35:31.518Z,14.16
2022-09-06T22:38:04.011Z,14.18
2022-09-06T22:40:36.448Z,14.14
2022-09-06T22:43:09.351Z,14.13
2022-09-06T22:45:42.898Z,14.13
2022-09-06T22:48:16.205Z,14.12
2022-09-06T22:50:48.667Z,14.02
2022-09-06T22:53:21.136Z,13.98
2022-09-06T22:55:53.715Z,13.94
2022-09-06T22:58:26.714Z,13.83
2022-09-06T23:01:05.610Z,13.79
2022-09-06T23:03:39.697Z,13.75
2022-09-06T23:06:12.383Z,13.81
2022-09-06T23:08:44.862Z,13.80
2022-09-06T23:11:18.714Z,13.80
2022-09-06T23:13:55.275Z,13.76
2022-09-06T23:16:28.149Z,13.69
2022-09-06T23:19:01.341Z,13.65
2022-09-06T23:21:33.907Z,13.65
2022-09-06T23:24:06.616Z,13.58
2022-09-06T23:26:39.030Z,13.53
2022-09-06T23:29:12.159Z,13.55
2022-09-06T23:31:46.317Z,13.52
2022-09-06T23:34:19.556Z,13.49
2022-09-06T23:36:52.111Z,13.41
2022-09-06T23:39:25.689Z,13.49
2022-09-06T23:41:58.131Z,13.46
2022-09-06T23:44:30.619Z,13.48
2022-09-06T23:47:03.331Z,13.40
2022-09-06T23:49:36.636Z,13.34
2022-09-06T23:52:09.134Z,13.20
2022-09-06T23:54:41.595Z,13.20
2022-09-06T23:57:14.063Z,13.14
2022-09-06T23:59:46.614Z,13.10
